Sparta, Canada
Current Conditions -  °F | °C
As of 2:31 PM on Thursday 27 Nov 2014 (Local Time) from CYXU Reporting Station
Snow Showers Snow Showers  
Wind Chill: 22°   Ceiling: 900
Heat Index: 30°   Visibility: 3mi
Dew Point: 28°   Wind: 9mph
Humidity: 93%   Direction: 270°W
Pressure: 30.06"   Gusts: 17mph
Location:  42.7°N, 81.08°W
Report Text: CYXU 271931Z 27008G15KT 3SM -SHSN SCT006 BKN009 BKN018 M01/M02 A3006 RMK SN1CF2CF2CU1 SLP192
Loading
Personal Weather Stations






























Interactive Weather Map New forecast layout! Learn more

10-Day Weather Forecast

Advertisements
Track Severe Weather on mobile